Time;durP1;ratioP1;P1;durP2;ratioP2;P2;SDS_P1;SDS_P2;PMS_P1;PMS_P2;Temp;Humidity;BMP_temperature;BMP_pressure;BME280_temperature;BME280_humidity;BME280_pressure;Samples;Min_cycle;Max_cycle;Signal;HPM_P1;HPM_P2
2022/03/22 00:00:43;;;;;;;16.65;10.2;;;;;;;0.29;39.86621;96452.57;;;;
2022/03/22 00:01:44;;;;;;;16.65;10.2;;;;;;;0.29;39.86621;96452.57;;;;
2022/03/22 00:02:44;;;;;;;16.65;10.2;;;;;;;0.29;39.86621;96452.57;;;;
2022/03/22 00:03:46;;;;;;;16.65;10.2;;;;;;;0.29;39.86621;96452.57;;;;
2022/03/22 00:04:46;;;;;;;16.65;10.2;;;;;;;0.29;39.86621;96452.57;;;;
2022/03/22 00:05:47;;;;;;;16.65;10.2;;;;;;;0.29;39.86621;96452.57;;;;
2022/03/22 00:06:47;;;;;;;15;9.799999;;;;;;;0.14;40.13672;96457.53;;;;
2022/03/22 00:07:48;;;;;;;15;9.799999;;;;;;;0.14;40.13672;96457.53;;;;
2022/03/22 00:08:48;;;;;;;15;9.799999;;;;;;;0.14;40.13672;96457.53;;;;
2022/03/22 00:09:49;;;;;;;15;9.799999;;;;;;;0.14;40.13672;96457.53;;;;
2022/03/22 00:10:49;;;;;;;15;9.799999;;;;;;;0.14;40.13672;96457.53;;;;
2022/03/22 00:11:50;;;;;;;15;9.799999;;;;;;;0.14;40.13672;96457.53;;;;
2022/03/22 00:12:51;;;;;;;15;9.799999;;;;;;;0.14;40.13672;96457.53;;;;
2022/03/22 00:13:51;;;;;;;15;9.799999;;;;;;;0.14;40.13672;96457.53;;;;
2022/03/22 00:14:52;;;;;;;15;9.799999;;;;;;;0.14;40.13672;96457.53;;;;
2022/03/22 00:15:53;;;;;;;15;9.799999;;;;;;;0.14;40.13672;96457.53;;;;
2022/03/22 00:16:54;;;;;;;15;9.799999;;;;;;;0.14;40.13672;96457.53;;;;
2022/03/22 00:17:55;;;;;;;20.5;11.45;;;;;;;0.13;40.27344;96452.76;;;;
2022/03/22 00:18:56;;;;;;;20.5;11.45;;;;;;;0.13;40.27344;96452.76;;;;
2022/03/22 00:19:56;;;;;;;20.5;11.45;;;;;;;0.13;40.27344;96452.76;;;;
2022/03/22 00:20:57;;;;;;;20.5;11.45;;;;;;;0.13;40.27344;96452.76;;;;
2022/03/22 00:21:58;;;;;;;20.5;11.45;;;;;;;0.13;40.27344;96452.76;;;;
2022/03/22 00:22:58;;;;;;;20.5;11.45;;;;;;;0.13;40.27344;96452.76;;;;
2022/03/22 00:23:59;;;;;;;20.5;11.45;;;;;;;0.13;40.27344;96452.76;;;;
2022/03/22 00:24:59;;;;;;;20.5;11.45;;;;;;;0.13;40.27344;96452.76;;;;
2022/03/22 00:26:00;;;;;;;20.5;11.45;;;;;;;0.13;40.27344;96452.76;;;;
2022/03/22 00:27:00;;;;;;;20.5;11.45;;;;;;;0.13;40.27344;96452.76;;;;
2022/03/22 00:28:01;;;;;;;17;10.65;;;;;;;0.02;40.46289;96449.88;;;;
2022/03/22 00:29:03;;;;;;;17;10.65;;;;;;;0.02;40.46289;96449.88;;;;
2022/03/22 00:30:03;;;;;;;17;10.65;;;;;;;0.02;40.46289;96449.88;;;;
2022/03/22 00:31:05;;;;;;;17;10.65;;;;;;;0.02;40.46289;96449.88;;;;
2022/03/22 00:32:08;;;;;;;17;10.65;;;;;;;0.02;40.46289;96449.88;;;;
2022/03/22 00:33:09;;;;;;;17;10.65;;;;;;;0.02;40.46289;96449.88;;;;
2022/03/22 00:34:13;;;;;;;17;10.65;;;;;;;0.02;40.46289;96449.88;;;;
2022/03/22 00:35:18;;;;;;;17;10.65;;;;;;;0.02;40.46289;96449.88;;;;
2022/03/22 00:36:18;;;;;;;17;10.65;;;;;;;0.02;40.46289;96449.88;;;;
2022/03/22 00:37:19;;;;;;;17;10.65;;;;;;;0.02;40.46289;96449.88;;;;
2022/03/22 00:38:20;;;;;;;17;10.65;;;;;;;0.02;40.46289;96449.88;;;;
2022/03/22 00:39:20;;;;;;;21.65;10.9;;;;;;;-0.11;40.74512;96448.44;;;;
2022/03/22 00:40:21;;;;;;;21.65;10.9;;;;;;;-0.11;40.74512;96448.44;;;;
2022/03/22 00:41:21;;;;;;;21.65;10.9;;;;;;;-0.11;40.74512;96448.44;;;;
2022/03/22 00:42:22;;;;;;;21.65;10.9;;;;;;;-0.11;40.74512;96448.44;;;;
2022/03/22 00:43:23;;;;;;;21.65;10.9;;;;;;;-0.11;40.74512;96448.44;;;;
2022/03/22 00:44:23;;;;;;;21.65;10.9;;;;;;;-0.11;40.74512;96448.44;;;;
2022/03/22 00:45:24;;;;;;;21.65;10.9;;;;;;;-0.11;40.74512;96448.44;;;;
2022/03/22 00:46:28;;;;;;;21.65;10.9;;;;;;;-0.11;40.74512;96448.44;;;;
2022/03/22 00:47:30;;;;;;;21.65;10.9;;;;;;;-0.11;40.74512;96448.44;;;;
2022/03/22 00:48:30;;;;;;;21.65;10.9;;;;;;;-0.11;40.74512;96448.44;;;;
2022/03/22 00:49:33;;;;;;;21.65;10.9;;;;;;;-0.11;40.74512;96448.44;;;;
2022/03/22 00:50:34;;;;;;;21.65;10.9;;;;;;;-0.11;40.74512;96448.44;;;;
2022/03/22 00:51:36;;;;;;;21.65;10.9;;;;;;;-0.11;40.74512;96448.44;;;;
2022/03/22 00:52:36;;;;;;;21.65;10.9;;;;;;;-0.11;40.74512;96448.44;;;;
2022/03/22 00:53:37;;;;;;;21.65;10.9;;;;;;;-0.11;40.74512;96448.44;;;;
2022/03/22 00:54:37;;;;;;;21.65;10.9;;;;;;;-0.11;40.74512;96448.44;;;;
2022/03/22 00:55:40;;;;;;;21.65;10.9;;;;;;;-0.11;40.74512;96448.44;;;;
2022/03/22 00:56:41;;;;;;;21.65;10.9;;;;;;;-0.11;40.74512;96448.44;;;;
2022/03/22 00:57:42;;;;;;;21.65;10.9;;;;;;;-0.11;40.74512;96448.44;;;;
2022/03/22 00:58:43;;;;;;;21.65;10.9;;;;;;;-0.11;40.74512;96448.44;;;;
2022/03/22 01:00:16;;;;;;;21.65;10.9;;;;;;;-0.11;40.74512;96448.44;;;;
2022/03/22 01:01:18;;;;;;;15.55;9.650001;;;;;;;-0.26;41.02637;96460.46;;;;
2022/03/22 01:02:18;;;;;;;15.55;9.650001;;;;;;;-0.26;41.02637;96460.46;;;;
2022/03/22 01:03:19;;;;;;;15.55;9.650001;;;;;;;-0.26;41.02637;96460.46;;;;
2022/03/22 01:04:19;;;;;;;15.55;9.650001;;;;;;;-0.26;41.02637;96460.46;;;;
2022/03/22 01:05:20;;;;;;;15.55;9.650001;;;;;;;-0.26;41.02637;96460.46;;;;
2022/03/22 01:06:22;;;;;;;15.55;9.650001;;;;;;;-0.26;41.02637;96460.46;;;;
2022/03/22 01:07:22;;;;;;;15.55;9.650001;;;;;;;-0.26;41.02637;96460.46;;;;
2022/03/22 01:08:23;;;;;;;15.55;9.650001;;;;;;;-0.26;41.02637;96460.46;;;;
2022/03/22 01:09:23;;;;;;;15.55;9.650001;;;;;;;-0.26;41.02637;96460.46;;;;
2022/03/22 01:10:24;;;;;;;15.55;9.650001;;;;;;;-0.26;41.02637;96460.46;;;;
2022/03/22 01:11:26;;;;;;;15.45;9.6;;;;;;;-0.37;41.21582;96454.38;;;;
2022/03/22 01:12:27;;;;;;;15.45;9.6;;;;;;;-0.37;41.21582;96454.38;;;;
2022/03/22 01:13:28;;;;;;;15.45;9.6;;;;;;;-0.37;41.21582;96454.38;;;;
2022/03/22 01:14:28;;;;;;;15.45;9.6;;;;;;;-0.37;41.21582;96454.38;;;;
2022/03/22 01:15:32;;;;;;;15.45;9.6;;;;;;;-0.37;41.21582;96454.38;;;;
2022/03/22 01:16:35;;;;;;;15.45;9.6;;;;;;;-0.37;41.21582;96454.38;;;;
2022/03/22 01:17:36;;;;;;;15.45;9.6;;;;;;;-0.37;41.21582;96454.38;;;;
2022/03/22 01:18:36;;;;;;;15.45;9.6;;;;;;;-0.37;41.21582;96454.38;;;;
2022/03/22 01:19:38;;;;;;;15.45;9.6;;;;;;;-0.37;41.21582;96454.38;;;;
2022/03/22 01:20:38;;;;;;;15.45;9.6;;;;;;;-0.37;41.21582;96454.38;;;;
2022/03/22 01:21:41;;;;;;;16.05;9.700001;;;;;;;-0.45;41.35547;96439.64;;;;
2022/03/22 01:22:42;;;;;;;16.05;9.700001;;;;;;;-0.45;41.35547;96439.64;;;;
2022/03/22 01:23:45;;;;;;;16.05;9.700001;;;;;;;-0.45;41.35547;96439.64;;;;
2022/03/22 01:24:45;;;;;;;16.05;9.700001;;;;;;;-0.45;41.35547;96439.64;;;;
2022/03/22 01:25:47;;;;;;;16.05;9.700001;;;;;;;-0.45;41.35547;96439.64;;;;
2022/03/22 01:26:49;;;;;;;16.05;9.700001;;;;;;;-0.45;41.35547;96439.64;;;;
2022/03/22 01:27:50;;;;;;;16.05;9.700001;;;;;;;-0.45;41.35547;96439.64;;;;
2022/03/22 01:28:51;;;;;;;16.05;9.700001;;;;;;;-0.45;41.35547;96439.64;;;;
2022/03/22 01:29:51;;;;;;;16.05;9.700001;;;;;;;-0.45;41.35547;96439.64;;;;
2022/03/22 01:30:52;;;;;;;16.05;9.700001;;;;;;;-0.45;41.35547;96439.64;;;;
2022/03/22 01:31:54;;;;;;;16.05;9.700001;;;;;;;-0.45;41.35547;96439.64;;;;
2022/03/22 01:32:55;;;;;;;16.75;9.85;;;;;;;-0.52;41.50684;96451.31;;;;
2022/03/22 01:33:56;;;;;;;16.75;9.85;;;;;;;-0.52;41.50684;96451.31;;;;
2022/03/22 01:34:56;;;;;;;16.75;9.85;;;;;;;-0.52;41.50684;96451.31;;;;
2022/03/22 01:35:57;;;;;;;16.75;9.85;;;;;;;-0.52;41.50684;96451.31;;;;
2022/03/22 01:36:58;;;;;;;16.75;9.85;;;;;;;-0.52;41.50684;96451.31;;;;
2022/03/22 01:37:58;;;;;;;16.75;9.85;;;;;;;-0.52;41.50684;96451.31;;;;
2022/03/22 01:38:59;;;;;;;16.75;9.85;;;;;;;-0.52;41.50684;96451.31;;;;
2022/03/22 01:40:00;;;;;;;16.75;9.85;;;;;;;-0.52;41.50684;96451.31;;;;
2022/03/22 01:41:00;;;;;;;16.75;9.85;;;;;;;-0.52;41.50684;96451.31;;;;
2022/03/22 01:42:01;;;;;;;16.75;9.85;;;;;;;-0.52;41.50684;96451.31;;;;
2022/03/22 01:43:01;;;;;;;14.3;9.549999;;;;;;;-0.6;41.67871;96440.59;;;;
2022/03/22 01:44:03;;;;;;;14.3;9.549999;;;;;;;-0.6;41.67871;96440.59;;;;
2022/03/22 01:45:04;;;;;;;14.3;9.549999;;;;;;;-0.6;41.67871;96440.59;;;;
2022/03/22 01:46:07;;;;;;;14.3;9.549999;;;;;;;-0.6;41.67871;96440.59;;;;
2022/03/22 01:47:07;;;;;;;14.3;9.549999;;;;;;;-0.6;41.67871;96440.59;;;;
2022/03/22 01:48:10;;;;;;;14.3;9.549999;;;;;;;-0.6;41.67871;96440.59;;;;
2022/03/22 01:49:10;;;;;;;14.3;9.549999;;;;;;;-0.6;41.67871;96440.59;;;;
2022/03/22 01:50:11;;;;;;;14.3;9.549999;;;;;;;-0.6;41.67871;96440.59;;;;
2022/03/22 01:51:13;;;;;;;14.3;9.549999;;;;;;;-0.6;41.67871;96440.59;;;;
2022/03/22 01:52:14;;;;;;;14.3;9.549999;;;;;;;-0.6;41.67871;96440.59;;;;
2022/03/22 01:53:15;;;;;;;14.3;9.549999;;;;;;;-0.6;41.67871;96440.59;;;;
2022/03/22 01:54:17;;;;;;;15.3;9.65;;;;;;;-0.68;41.85938;96437.78;;;;
2022/03/22 01:55:18;;;;;;;15.3;9.65;;;;;;;-0.68;41.85938;96437.78;;;;
2022/03/22 01:56:19;;;;;;;15.3;9.65;;;;;;;-0.68;41.85938;96437.78;;;;
2022/03/22 01:57:20;;;;;;;15.3;9.65;;;;;;;-0.68;41.85938;96437.78;;;;
2022/03/22 01:58:24;;;;;;;15.3;9.65;;;;;;;-0.68;41.85938;96437.78;;;;
2022/03/22 01:59:24;;;;;;;15.3;9.65;;;;;;;-0.68;41.85938;96437.78;;;;
2022/03/22 02:00:25;;;;;;;15.3;9.65;;;;;;;-0.68;41.85938;96437.78;;;;
2022/03/22 02:06:40;;;;;;;14.3;9.300001;;;;;;;-0.77;42.03809;96428.09;;;;
2022/03/22 02:07:44;;;;;;;14.3;9.300001;;;;;;;-0.77;42.03809;96428.09;;;;
2022/03/22 02:08:45;;;;;;;14.3;9.300001;;;;;;;-0.77;42.03809;96428.09;;;;
2022/03/22 02:09:46;;;;;;;14.3;9.300001;;;;;;;-0.77;42.03809;96428.09;;;;
2022/03/22 02:10:46;;;;;;;14.3;9.300001;;;;;;;-0.77;42.03809;96428.09;;;;
2022/03/22 02:11:47;;;;;;;14.3;9.300001;;;;;;;-0.77;42.03809;96428.09;;;;
2022/03/22 02:12:47;;;;;;;14.3;9.300001;;;;;;;-0.77;42.03809;96428.09;;;;
2022/03/22 02:13:48;;;;;;;14.3;9.300001;;;;;;;-0.77;42.03809;96428.09;;;;
2022/03/22 02:14:48;;;;;;;13.85;9.4;;;;;;;-0.86;42.22949;96429.32;;;;
2022/03/22 02:15:49;;;;;;;13.85;9.4;;;;;;;-0.86;42.22949;96429.32;;;;
2022/03/22 02:16:53;;;;;;;13.85;9.4;;;;;;;-0.86;42.22949;96429.32;;;;
2022/03/22 02:17:54;;;;;;;13.85;9.4;;;;;;;-0.86;42.22949;96429.32;;;;
2022/03/22 02:18:55;;;;;;;13.85;9.4;;;;;;;-0.86;42.22949;96429.32;;;;
2022/03/22 02:19:57;;;;;;;13.85;9.4;;;;;;;-0.86;42.22949;96429.32;;;;
2022/03/22 02:20:58;;;;;;;13.85;9.4;;;;;;;-0.86;42.22949;96429.32;;;;
2022/03/22 02:22:00;;;;;;;13.85;9.4;;;;;;;-0.86;42.22949;96429.32;;;;
2022/03/22 02:23:02;;;;;;;13.85;9.4;;;;;;;-0.86;42.22949;96429.32;;;;
2022/03/22 02:24:05;;;;;;;13.85;9.4;;;;;;;-0.86;42.22949;96429.32;;;;
2022/03/22 02:25:06;;;;;;;13.85;9.4;;;;;;;-0.86;42.22949;96429.32;;;;
2022/03/22 02:26:07;;;;;;;17.9;10.3;;;;;;;-0.94;42.43262;96423.46;;;;
2022/03/22 02:27:09;;;;;;;17.9;10.3;;;;;;;-0.94;42.43262;96423.46;;;;
2022/03/22 02:28:11;;;;;;;17.9;10.3;;;;;;;-0.94;42.43262;96423.46;;;;
2022/03/22 02:29:12;;;;;;;17.9;10.3;;;;;;;-0.94;42.43262;96423.46;;;;
2022/03/22 02:30:12;;;;;;;17.9;10.3;;;;;;;-0.94;42.43262;96423.46;;;;
2022/03/22 02:31:14;;;;;;;17.9;10.3;;;;;;;-0.94;42.43262;96423.46;;;;
2022/03/22 02:32:17;;;;;;;17.9;10.3;;;;;;;-0.94;42.43262;96423.46;;;;
2022/03/22 02:33:22;;;;;;;17.9;10.3;;;;;;;-0.94;42.43262;96423.46;;;;
2022/03/22 02:34:23;;;;;;;17.9;10.3;;;;;;;-0.94;42.43262;96423.46;;;;
2022/03/22 02:35:24;;;;;;;17.9;10.3;;;;;;;-0.94;42.43262;96423.46;;;;
2022/03/22 02:36:25;;;;;;;15.65;9.049999;;;;;;;-1.02;42.61328;96412.7;;;;
2022/03/22 02:37:26;;;;;;;15.65;9.049999;;;;;;;-1.02;42.61328;96412.7;;;;
2022/03/22 02:38:26;;;;;;;15.65;9.049999;;;;;;;-1.02;42.61328;96412.7;;;;
2022/03/22 02:39:27;;;;;;;15.65;9.049999;;;;;;;-1.02;42.61328;96412.7;;;;
2022/03/22 02:40:27;;;;;;;15.65;9.049999;;;;;;;-1.02;42.61328;96412.7;;;;
2022/03/22 02:41:28;;;;;;;15.65;9.049999;;;;;;;-1.02;42.61328;96412.7;;;;
2022/03/22 02:42:29;;;;;;;15.65;9.049999;;;;;;;-1.02;42.61328;96412.7;;;;
2022/03/22 02:43:29;;;;;;;15.65;9.049999;;;;;;;-1.02;42.61328;96412.7;;;;
2022/03/22 02:44:30;;;;;;;15.65;9.049999;;;;;;;-1.02;42.61328;96412.7;;;;
2022/03/22 02:45:30;;;;;;;15.65;9.049999;;;;;;;-1.02;42.61328;96412.7;;;;
2022/03/22 02:46:31;;;;;;;15.65;9.049999;;;;;;;-1.02;42.61328;96412.7;;;;
2022/03/22 02:47:32;;;;;;;13.5;8.65;;;;;;;-1.12;42.79297;96406.98;;;;
2022/03/22 02:48:34;;;;;;;13.5;8.65;;;;;;;-1.12;42.79297;96406.98;;;;
2022/03/22 02:49:34;;;;;;;13.5;8.65;;;;;;;-1.12;42.79297;96406.98;;;;
2022/03/22 02:50:35;;;;;;;13.5;8.65;;;;;;;-1.12;42.79297;96406.98;;;;
2022/03/22 02:51:35;;;;;;;13.5;8.65;;;;;;;-1.12;42.79297;96406.98;;;;
2022/03/22 02:52:36;;;;;;;13.5;8.65;;;;;;;-1.12;42.79297;96406.98;;;;
2022/03/22 02:53:37;;;;;;;13.5;8.65;;;;;;;-1.12;42.79297;96406.98;;;;
2022/03/22 02:54:38;;;;;;;13.5;8.65;;;;;;;-1.12;42.79297;96406.98;;;;
2022/03/22 02:55:38;;;;;;;13.5;8.65;;;;;;;-1.12;42.79297;96406.98;;;;
2022/03/22 02:56:39;;;;;;;13.5;8.65;;;;;;;-1.12;42.79297;96406.98;;;;
2022/03/22 02:57:39;;;;;;;14;8.75;;;;;;;-1.21;42.95215;96405.1;;;;
2022/03/22 02:58:40;;;;;;;14;8.75;;;;;;;-1.21;42.95215;96405.1;;;;
2022/03/22 02:59:41;;;;;;;14;8.75;;;;;;;-1.21;42.95215;96405.1;;;;
2022/03/22 03:00:41;;;;;;;14;8.75;;;;;;;-1.21;42.95215;96405.1;;;;
2022/03/22 03:01:42;;;;;;;14;8.75;;;;;;;-1.21;42.95215;96405.1;;;;
2022/03/22 03:02:43;;;;;;;14;8.75;;;;;;;-1.21;42.95215;96405.1;;;;
2022/03/22 03:03:47;;;;;;;14;8.75;;;;;;;-1.21;42.95215;96405.1;;;;
2022/03/22 03:04:47;;;;;;;14;8.75;;;;;;;-1.21;42.95215;96405.1;;;;
2022/03/22 03:05:48;;;;;;;14;8.75;;;;;;;-1.21;42.95215;96405.1;;;;
2022/03/22 03:06:49;;;;;;;14;8.75;;;;;;;-1.21;42.95215;96405.1;;;;
2022/03/22 03:07:49;;;;;;;14;8.75;;;;;;;-1.21;42.95215;96405.1;;;;
2022/03/22 03:08:51;;;;;;;15.5;9.549999;;;;;;;-1.39;43.26953;96408.95;;;;
2022/03/22 03:09:51;;;;;;;15.5;9.549999;;;;;;;-1.39;43.26953;96408.95;;;;
2022/03/22 03:10:52;;;;;;;15.5;9.549999;;;;;;;-1.39;43.26953;96408.95;;;;
2022/03/22 03:11:53;;;;;;;15.5;9.549999;;;;;;;-1.39;43.26953;96408.95;;;;
2022/03/22 03:12:53;;;;;;;15.5;9.549999;;;;;;;-1.39;43.26953;96408.95;;;;
2022/03/22 03:15:00;;;;;;;15.5;9.549999;;;;;;;-1.39;43.26953;96408.95;;;;
2022/03/22 03:16:01;;;;;;;15.5;9.549999;;;;;;;-1.39;43.26953;96408.95;;;;
2022/03/22 03:17:01;;;;;;;15.5;9.549999;;;;;;;-1.39;43.26953;96408.95;;;;
2022/03/22 03:18:02;;;;;;;15.5;9.549999;;;;;;;-1.39;43.26953;96408.95;;;;
2022/03/22 03:19:03;;;;;;;14.95;12.2;;;;;;;-1.45;43.46289;96414.78;;;;
2022/03/22 03:20:03;;;;;;;14.95;12.2;;;;;;;-1.45;43.46289;96414.78;;;;
2022/03/22 03:21:06;;;;;;;14.95;12.2;;;;;;;-1.45;43.46289;96414.78;;;;
2022/03/22 03:22:06;;;;;;;14.95;12.2;;;;;;;-1.45;43.46289;96414.78;;;;
2022/03/22 03:23:08;;;;;;;14.95;12.2;;;;;;;-1.45;43.46289;96414.78;;;;
2022/03/22 03:24:09;;;;;;;14.95;12.2;;;;;;;-1.45;43.46289;96414.78;;;;
2022/03/22 03:25:10;;;;;;;14.95;12.2;;;;;;;-1.45;43.46289;96414.78;;;;
2022/03/22 03:26:10;;;;;;;14.95;12.2;;;;;;;-1.45;43.46289;96414.78;;;;
2022/03/22 03:27:11;;;;;;;14.95;12.2;;;;;;;-1.45;43.46289;96414.78;;;;
2022/03/22 03:28:11;;;;;;;14.95;12.2;;;;;;;-1.45;43.46289;96414.78;;;;
2022/03/22 03:29:12;;;;;;;14.95;12.2;;;;;;;-1.45;43.46289;96414.78;;;;
2022/03/22 03:30:13;;;;;;;16.5;12;;;;;;;-1.54;44.80859;96423.95;;;;
2022/03/22 03:31:14;;;;;;;16.5;12;;;;;;;-1.54;44.80859;96423.95;;;;
2022/03/22 03:32:14;;;;;;;16.5;12;;;;;;;-1.54;44.80859;96423.95;;;;
2022/03/22 03:33:15;;;;;;;16.5;12;;;;;;;-1.54;44.80859;96423.95;;;;
2022/03/22 03:34:15;;;;;;;16.5;12;;;;;;;-1.54;44.80859;96423.95;;;;
2022/03/22 03:35:16;;;;;;;16.5;12;;;;;;;-1.54;44.80859;96423.95;;;;
2022/03/22 03:36:16;;;;;;;16.5;12;;;;;;;-1.54;44.80859;96423.95;;;;
2022/03/22 03:37:17;;;;;;;16.5;12;;;;;;;-1.54;44.80859;96423.95;;;;
2022/03/22 03:38:18;;;;;;;16.5;12;;;;;;;-1.54;44.80859;96423.95;;;;
2022/03/22 03:39:18;;;;;;;16.5;12;;;;;;;-1.54;44.80859;96423.95;;;;
2022/03/22 03:40:19;;;;;;;14;11.4;;;;;;;-1.53;45.64844;96439.37;;;;
2022/03/22 03:42:25;;;;;;;14;11.4;;;;;;;-1.53;45.64844;96439.37;;;;
2022/03/22 03:43:25;;;;;;;14;11.4;;;;;;;-1.53;45.64844;96439.37;;;;
2022/03/22 03:49:37;;;;;;;14;11.4;;;;;;;-1.53;45.64844;96439.37;;;;
2022/03/22 03:50:39;;;;;;;14;11.4;;;;;;;-1.53;45.64844;96439.37;;;;
2022/03/22 03:51:40;;;;;;;15.95;11.8;;;;;;;-1.63;46.5293;96446.36;;;;
2022/03/22 03:52:40;;;;;;;15.95;11.8;;;;;;;-1.63;46.5293;96446.36;;;;
2022/03/22 03:53:41;;;;;;;15.95;11.8;;;;;;;-1.63;46.5293;96446.36;;;;
2022/03/22 03:54:41;;;;;;;15.95;11.8;;;;;;;-1.63;46.5293;96446.36;;;;
2022/03/22 03:55:43;;;;;;;15.95;11.8;;;;;;;-1.63;46.5293;96446.36;;;;
2022/03/22 03:56:43;;;;;;;15.95;11.8;;;;;;;-1.63;46.5293;96446.36;;;;
2022/03/22 03:57:44;;;;;;;15.95;11.8;;;;;;;-1.63;46.5293;96446.36;;;;
2022/03/22 03:58:45;;;;;;;15.95;11.8;;;;;;;-1.63;46.5293;96446.36;;;;
2022/03/22 03:59:46;;;;;;;15.95;11.8;;;;;;;-1.63;46.5293;96446.36;;;;
2022/03/22 04:00:46;;;;;;;15.95;11.8;;;;;;;-1.63;46.5293;96446.36;;;;
2022/03/22 04:01:47;;;;;;;15.25;12.65;;;;;;;-1.71;47.16992;96443.53;;;;
2022/03/22 04:02:47;;;;;;;15.25;12.65;;;;;;;-1.71;47.16992;96443.53;;;;
2022/03/22 04:03:48;;;;;;;15.25;12.65;;;;;;;-1.71;47.16992;96443.53;;;;
2022/03/22 04:04:51;;;;;;;15.25;12.65;;;;;;;-1.71;47.16992;96443.53;;;;
2022/03/22 04:05:52;;;;;;;15.25;12.65;;;;;;;-1.71;47.16992;96443.53;;;;
2022/03/22 04:06:52;;;;;;;15.25;12.65;;;;;;;-1.71;47.16992;96443.53;;;;
2022/03/22 04:07:53;;;;;;;15.25;12.65;;;;;;;-1.71;47.16992;96443.53;;;;
2022/03/22 04:08:54;;;;;;;15.25;12.65;;;;;;;-1.71;47.16992;96443.53;;;;
2022/03/22 04:09:55;;;;;;;15.25;12.65;;;;;;;-1.71;47.16992;96443.53;;;;
2022/03/22 04:10:56;;;;;;;15.25;12.65;;;;;;;-1.71;47.16992;96443.53;;;;
2022/03/22 04:11:56;;;;;;;15.25;12.65;;;;;;;-1.71;47.16992;96443.53;;;;
2022/03/22 04:12:57;;;;;;;15.65;12.05;;;;;;;-1.77;47.77051;96444.56;;;;
2022/03/22 04:13:57;;;;;;;15.65;12.05;;;;;;;-1.77;47.77051;96444.56;;;;
2022/03/22 04:14:58;;;;;;;15.65;12.05;;;;;;;-1.77;47.77051;96444.56;;;;
2022/03/22 04:15:58;;;;;;;15.65;12.05;;;;;;;-1.77;47.77051;96444.56;;;;
2022/03/22 04:16:59;;;;;;;15.65;12.05;;;;;;;-1.77;47.77051;96444.56;;;;
2022/03/22 04:17:59;;;;;;;15.65;12.05;;;;;;;-1.77;47.77051;96444.56;;;;
2022/03/22 04:19:00;;;;;;;15.65;12.05;;;;;;;-1.77;47.77051;96444.56;;;;
2022/03/22 04:20:01;;;;;;;15.65;12.05;;;;;;;-1.77;47.77051;96444.56;;;;
2022/03/22 04:21:02;;;;;;;15.65;12.05;;;;;;;-1.77;47.77051;96444.56;;;;
2022/03/22 04:22:03;;;;;;;15.65;12.05;;;;;;;-1.77;47.77051;96444.56;;;;
2022/03/22 04:23:04;;;;;;;17;11.9;;;;;;;-1.85;48.24414;96441.72;;;;
2022/03/22 04:24:05;;;;;;;17;11.9;;;;;;;-1.85;48.24414;96441.72;;;;
2022/03/22 04:25:08;;;;;;;17;11.9;;;;;;;-1.85;48.24414;96441.72;;;;
2022/03/22 04:26:10;;;;;;;17;11.9;;;;;;;-1.85;48.24414;96441.72;;;;
2022/03/22 04:32:54;;;;;;;17;11.9;;;;;;;-1.85;48.24414;96441.72;;;;
2022/03/22 04:33:54;;;;;;;15.75;12.65;;;;;;;-1.94;48.7041;96446.09;;;;
2022/03/22 04:34:56;;;;;;;15.75;12.65;;;;;;;-1.94;48.7041;96446.09;;;;
2022/03/22 04:35:57;;;;;;;15.75;12.65;;;;;;;-1.94;48.7041;96446.09;;;;
2022/03/22 04:36:57;;;;;;;15.75;12.65;;;;;;;-1.94;48.7041;96446.09;;;;
2022/03/22 04:37:58;;;;;;;15.75;12.65;;;;;;;-1.94;48.7041;96446.09;;;;
2022/03/22 04:38:59;;;;;;;15.75;12.65;;;;;;;-1.94;48.7041;96446.09;;;;
2022/03/22 04:40:00;;;;;;;15.75;12.65;;;;;;;-1.94;48.7041;96446.09;;;;
2022/03/22 04:41:01;;;;;;;15.75;12.65;;;;;;;-1.94;48.7041;96446.09;;;;
2022/03/22 04:42:01;;;;;;;15.75;12.65;;;;;;;-1.94;48.7041;96446.09;;;;
2022/03/22 04:43:03;;;;;;;15.75;12.65;;;;;;;-1.94;48.7041;96446.09;;;;
2022/03/22 04:44:03;;;;;;;15.75;12.65;;;;;;;-1.94;48.7041;96446.09;;;;
2022/03/22 04:45:05;;;;;;;16.45;12.15;;;;;;;-2.05;49.16211;96448.3;;;;
2022/03/22 04:46:07;;;;;;;16.45;12.15;;;;;;;-2.05;49.16211;96448.3;;;;
2022/03/22 04:47:08;;;;;;;16.45;12.15;;;;;;;-2.05;49.16211;96448.3;;;;
2022/03/22 04:48:08;;;;;;;16.45;12.15;;;;;;;-2.05;49.16211;96448.3;;;;
2022/03/22 04:49:09;;;;;;;16.45;12.15;;;;;;;-2.05;49.16211;96448.3;;;;
2022/03/22 04:50:10;;;;;;;16.45;12.15;;;;;;;-2.05;49.16211;96448.3;;;;
2022/03/22 04:57:17;;;;;;;15.75;13;;;;;;;-2.14;49.57129;96446.86;;;;
2022/03/22 04:58:17;;;;;;;15.75;13;;;;;;;-2.14;49.57129;96446.86;;;;
2022/03/22 04:59:19;;;;;;;15.75;13;;;;;;;-2.14;49.57129;96446.86;;;;
2022/03/22 05:00:20;;;;;;;15.75;13;;;;;;;-2.14;49.57129;96446.86;;;;
2022/03/22 05:01:21;;;;;;;15.75;13;;;;;;;-2.14;49.57129;96446.86;;;;
2022/03/22 05:02:21;;;;;;;15.75;13;;;;;;;-2.14;49.57129;96446.86;;;;
2022/03/22 05:03:22;;;;;;;15.75;13;;;;;;;-2.14;49.57129;96446.86;;;;
2022/03/22 05:04:22;;;;;;;15.75;13;;;;;;;-2.14;49.57129;96446.86;;;;
2022/03/22 05:06:25;;;;;;;15.75;13;;;;;;;-2.14;49.57129;96446.86;;;;
2022/03/22 05:07:26;;;;;;;15.65;12.65;;;;;;;-2.22;50.0625;96453.77;;;;
2022/03/22 05:08:27;;;;;;;15.65;12.65;;;;;;;-2.22;50.0625;96453.77;;;;
2022/03/22 05:09:28;;;;;;;15.65;12.65;;;;;;;-2.22;50.0625;96453.77;;;;
2022/03/22 05:10:29;;;;;;;15.65;12.65;;;;;;;-2.22;50.0625;96453.77;;;;
2022/03/22 05:11:31;;;;;;;15.65;12.65;;;;;;;-2.22;50.0625;96453.77;;;;
2022/03/22 05:12:31;;;;;;;15.65;12.65;;;;;;;-2.22;50.0625;96453.77;;;;
2022/03/22 05:13:32;;;;;;;15.65;12.65;;;;;;;-2.22;50.0625;96453.77;;;;
2022/03/22 05:14:35;;;;;;;15.65;12.65;;;;;;;-2.22;50.0625;96453.77;;;;
2022/03/22 05:15:35;;;;;;;15.65;12.65;;;;;;;-2.22;50.0625;96453.77;;;;
2022/03/22 05:16:36;;;;;;;18.9;12.85;;;;;;;-2.27;50.46484;96458.14;;;;
2022/03/22 05:17:37;;;;;;;18.9;12.85;;;;;;;-2.27;50.46484;96458.14;;;;
2022/03/22 05:18:38;;;;;;;18.9;12.85;;;;;;;-2.27;50.46484;96458.14;;;;
2022/03/22 05:19:39;;;;;;;18.9;12.85;;;;;;;-2.27;50.46484;96458.14;;;;
2022/03/22 05:20:39;;;;;;;18.9;12.85;;;;;;;-2.27;50.46484;96458.14;;;;
2022/03/22 05:21:40;;;;;;;18.9;12.85;;;;;;;-2.27;50.46484;96458.14;;;;
2022/03/22 05:22:42;;;;;;;18.9;12.85;;;;;;;-2.27;50.46484;96458.14;;;;
2022/03/22 05:23:42;;;;;;;18.9;12.85;;;;;;;-2.27;50.46484;96458.14;;;;
2022/03/22 05:24:43;;;;;;;18.9;12.85;;;;;;;-2.27;50.46484;96458.14;;;;
2022/03/22 05:25:44;;;;;;;18.9;12.85;;;;;;;-2.27;50.46484;96458.14;;;;
2022/03/22 05:26:46;;;;;;;18.9;12.85;;;;;;;-2.27;50.46484;96458.14;;;;
2022/03/22 05:27:46;;;;;;;15.55;12.25;;;;;;;-2.29;50.81836;96471.56;;;;
2022/03/22 05:28:47;;;;;;;15.55;12.25;;;;;;;-2.29;50.81836;96471.56;;;;
2022/03/22 05:29:48;;;;;;;15.55;12.25;;;;;;;-2.29;50.81836;96471.56;;;;
2022/03/22 05:30:48;;;;;;;15.55;12.25;;;;;;;-2.29;50.81836;96471.56;;;;
2022/03/22 05:31:49;;;;;;;15.55;12.25;;;;;;;-2.29;50.81836;96471.56;;;;
2022/03/22 05:32:49;;;;;;;15.55;12.25;;;;;;;-2.29;50.81836;96471.56;;;;
2022/03/22 05:33:50;;;;;;;15.55;12.25;;;;;;;-2.29;50.81836;96471.56;;;;
2022/03/22 05:34:50;;;;;;;15.55;12.25;;;;;;;-2.29;50.81836;96471.56;;;;
2022/03/22 05:35:51;;;;;;;15.55;12.25;;;;;;;-2.29;50.81836;96471.56;;;;
2022/03/22 05:36:52;;;;;;;15.55;12.25;;;;;;;-2.29;50.81836;96471.56;;;;
2022/03/22 05:37:53;;;;;;;16.35;12.15;;;;;;;-2.2;51.01758;96476.92;;;;
2022/03/22 05:38:53;;;;;;;16.35;12.15;;;;;;;-2.2;51.01758;96476.92;;;;
2022/03/22 05:39:54;;;;;;;16.35;12.15;;;;;;;-2.2;51.01758;96476.92;;;;
2022/03/22 05:40:55;;;;;;;16.35;12.15;;;;;;;-2.2;51.01758;96476.92;;;;
2022/03/22 05:41:56;;;;;;;16.35;12.15;;;;;;;-2.2;51.01758;96476.92;;;;
2022/03/22 05:42:57;;;;;;;16.35;12.15;;;;;;;-2.2;51.01758;96476.92;;;;
2022/03/22 05:43:58;;;;;;;16.35;12.15;;;;;;;-2.2;51.01758;96476.92;;;;
2022/03/22 05:44:58;;;;;;;16.35;12.15;;;;;;;-2.2;51.01758;96476.92;;;;
2022/03/22 05:45:59;;;;;;;16.35;12.15;;;;;;;-2.2;51.01758;96476.92;;;;
2022/03/22 05:46:59;;;;;;;16.35;12.15;;;;;;;-2.2;51.01758;96476.92;;;;
2022/03/22 05:48:00;;;;;;;16.35;12.15;;;;;;;-2.2;51.01758;96476.92;;;;
2022/03/22 05:49:01;;;;;;;18.15;12.3;;;;;;;-2.04;51.14063;96472.06;;;;
2022/03/22 05:50:01;;;;;;;18.15;12.3;;;;;;;-2.04;51.14063;96472.06;;;;
2022/03/22 05:51:02;;;;;;;18.15;12.3;;;;;;;-2.04;51.14063;96472.06;;;;
2022/03/22 05:52:03;;;;;;;18.15;12.3;;;;;;;-2.04;51.14063;96472.06;;;;
2022/03/22 05:53:04;;;;;;;18.15;12.3;;;;;;;-2.04;51.14063;96472.06;;;;
2022/03/22 05:54:05;;;;;;;18.15;12.3;;;;;;;-2.04;51.14063;96472.06;;;;
2022/03/22 05:55:06;;;;;;;18.15;12.3;;;;;;;-2.04;51.14063;96472.06;;;;
2022/03/22 05:56:07;;;;;;;18.15;12.3;;;;;;;-2.04;51.14063;96472.06;;;;
2022/03/22 05:57:08;;;;;;;18.15;12.3;;;;;;;-2.04;51.14063;96472.06;;;;
2022/03/22 05:58:08;;;;;;;18.15;12.3;;;;;;;-2.04;51.14063;96472.06;;;;
2022/03/22 05:59:09;;;;;;;18;13;;;;;;;-1.86;51.24707;96480.6;;;;
2022/03/22 06:00:10;;;;;;;18;13;;;;;;;-1.86;51.24707;96480.6;;;;
2022/03/22 06:01:13;;;;;;;18;13;;;;;;;-1.86;51.24707;96480.6;;;;
2022/03/22 06:02:13;;;;;;;18;13;;;;;;;-1.86;51.24707;96480.6;;;;
2022/03/22 06:03:14;;;;;;;18;13;;;;;;;-1.86;51.24707;96480.6;;;;
2022/03/22 06:04:15;;;;;;;18;13;;;;;;;-1.86;51.24707;96480.6;;;;
2022/03/22 06:05:15;;;;;;;18;13;;;;;;;-1.86;51.24707;96480.6;;;;
2022/03/22 06:06:16;;;;;;;18;13;;;;;;;-1.86;51.24707;96480.6;;;;